Nearby METAR Reports

 

KDPA - Chicago/Dupage, Illinois, USA
Distance from station: ESE 9mi, 15km
Updated: Fri, 03-Apr-2020 12:52am CDT
Light rain, Overcast
Light rain, Overcast
 Wind from ENE
Wind: ENE 5 mph , 7 km/h
Temperature: 46°F , 8°C
Wind Chill: 44°F , 7°C
Dew Point: 37°F , 3°C
Humidity: 71%
Barometer: 30.09 inHg , 1019 hPa
Summary: Light rain
Clouds: Overcast
Visibility: 10 miles , 16 km
Cloud details: Overcast 8000 ft
2020/04/03 05:52 KDPA 030552Z AUTO 06004KT 10SM -RA OVC080 08/03 A3009 RMK AO2 SLP192 P0000 60000 T00830028 10133 20083 401671011 50004
KARR - Chicago/Aurora, Illinois, USA
Distance from station: SSW 14mi, 22km
Updated: Fri, 03-Apr-2020 12:52am CDT

 
Barometer: 30.09 inHg , 1019 hPa
2020/04/03 05:52 KARR 030552Z AUTO A3009 RMK AO2 SLPNO 50003 PWINO FZRANO
 
KDKB - De Kalb, Illinois, USA
Distance from station: W 14mi, 23km
Updated: Fri, 03-Apr-2020 1:15am CDT
Overcast
Overcast
 Wind from E
Wind: E 10 mph , 17 km/h
Temperature: 46°F , 8°C
Wind Chill: 41°F , 5°C
Dew Point: 39°F , 4°C
Humidity: 76%
Barometer: 30.09 inHg , 1019 hPa
Clouds: Overcast
Visibility: 10 miles , 16 km
Cloud details: Partly cloudy 8500 ft
Overcast 10000 ft
2020/04/03 06:15 KDKB 030615Z AUTO 10009KT 10SM SCT085 OVC100 08/04 A3009 RMK AO2 T00780037
KORD - Chicago O'hare, Illinois, USA
Distance from station: E 25mi, 41km
Updated: Fri, 03-Apr-2020 12:51am CDT
Overcast
Overcast
 Wind from SE
Wind: SE 3 mph , 6 km/h
Temperature: 48°F , 9°C
Dew Point: 32°F , 0°C
Humidity: 54%
Barometer: 30.10 inHg , 1019.3 hPa
Clouds: Overcast
Visibility: 10 miles , 16 km
Cloud details: Partly cloudy 6000 ft
Partly cloudy 7500 ft
Overcast 10000 ft
2020/04/03 05:51 KORD 030551Z 14003KT 10SM SCT060 SCT075 OVC100 09/00 A3010 RMK AO2 SLP193 T00890000 10128 20089 401610011 53000 $
 
KPWK - Palwaukee, Illinois, USA
Distance from station: ENE 29mi, 47km
Updated: Fri, 03-Apr-2020 12:52am CDT
Overcast
Overcast
 Wind from calm
Wind: Calm
Temperature: 45°F , 7°C
Dew Point: 34°F , 1°C
Humidity: 66%
Barometer: 30.12 inHg , 1020 hPa
Clouds: Overcast
Visibility: 10 miles , 16 km
Cloud details: Partly cloudy 7500 ft
Mostly cloudy 9000 ft
Overcast 11000 ft
2020/04/03 05:52 KPWK 030552Z AUTO 00000KT 10SM SCT075 BKN090 OVC110 07/01 A3012 RMK AO2 SLP201 T00720006 10106 20072 401440006 53001
KLOT - Romeoville/Chi, Illinois, USA
Distance from station: SE 30mi, 48km
Updated: Fri, 03-Apr-2020 1:15am CDT
Rain, Overcast
Rain, Overcast
 Wind from calm
Wind: Calm
Temperature: 46°F , 8°C
Dew Point: 37°F , 3°C
Humidity: 71%
Barometer: 30.10 inHg , 1019.3 hPa
Summary: Rain
Clouds: Overcast
Visibility: 10 miles , 16 km
Cloud details: Overcast 9000 ft
2020/04/03 06:15 KLOT 030615Z AUTO 00000KT 10SM RA OVC090 08/03 A3010 RMK AO2 T00800034
 
KJOT - Joliet, Illinois, USA
Distance from station: SSE 33mi, 53km
Updated: Fri, 03-Apr-2020 1:15am CDT
Overcast
Overcast
 Wind from calm
Wind: Calm
Temperature: 50°F , 10°C
Dew Point: 39°F , 4°C
Humidity: 67%
Barometer: 30.11 inHg , 1019.6 hPa
Clouds: Overcast
Visibility: 10 miles , 16 km
Cloud details: Partly cloudy 7500 ft
Overcast 9500 ft
2020/04/03 06:15 KJOT 030615Z AUTO 00000KT 10SM SCT075 OVC095 10/04 A3011 RMK AO2 T00960039
KRPJ - Rochelle/Koritz, Illinois, USA
Distance from station: W 34mi, 55km
Updated: Fri, 03-Apr-2020 1:15am CDT
Overcast
Overcast
 Wind from SE
Wind: SE 9 mph , 15 km/h
Temperature: 48°F , 9°C
Wind Chill: 44°F , 7°C
Dew Point: 43°F , 6°C
Humidity: 82%
Barometer: 30.09 inHg , 1019 hPa
Clouds: Overcast
Visibility: 10 miles , 16 km
Cloud details: Partly cloudy 7000 ft
Overcast 9000 ft
2020/04/03 06:15 KRPJ 030615Z AUTO 14008KT 10SM SCT070 OVC090 09/06 A3009 RMK AO2 T00890057
 
KC09 - Morris-Washburn, Illinois, USA
Distance from station: S 36mi, 59km
Updated: Fri, 03-Apr-2020 1:15am CDT
Light rain, Overcast
Light rain, Overcast
 Wind from calm
Wind: Calm
Temperature: 48°F , 9°C
Dew Point: 39°F , 4°C
Humidity: 71%
Barometer: 30.09 inHg , 1019 hPa
Summary: Light rain
Clouds: Overcast
Visibility: 10 miles , 16 km
Cloud details: Overcast 8000 ft
2020/04/03 06:15 KC09 030615Z AUTO 00000KT 10SM -RA OVC080 09/04 A3009 RMK AO2 T00910043
KMDW - Chicago, Illinois, USA
Distance from station: ESE 37mi, 59km
Updated: Fri, 03-Apr-2020 12:53am CDT
Overcast
Overcast
 Wind from calm
Wind: Calm
Temperature: 46°F , 8°C
Dew Point: 30°F , -1°C
Humidity: 53%
Barometer: 30.11 inHg , 1019.6 hPa
Clouds: Overcast
Visibility: 10 miles , 16 km
Cloud details: Few Clouds 6500 ft
Mostly cloudy 8000 ft
Overcast 11000 ft
2020/04/03 05:53 KMDW 030553Z 00000KT 10SM FEW065 BKN080 OVC110 08/M01 A3011 RMK AO2 SLP196 T00831006 10117 20083 401501006 56001
 
KRFD - Rockford, Illinois, USA
Distance from station: WNW 38mi, 62km
Updated: Fri, 03-Apr-2020 12:54am CDT
Light rain, Overcast
Light rain, Overcast
 Wind from E
Wind: E 8 mph , 13 km/h
Temperature: 50°F , 10°C
Wind Chill: 47°F , 8°C
Dew Point: 39°F , 4°C
Humidity: 67%
Barometer: 30.08 inHg , 1018.6 hPa
Summary: Light rain
Clouds: Overcast
Visibility: 10 miles , 16 km
Cloud details: Overcast 10000 ft
2020/04/03 05:54 KRFD 030554Z 10007KT 10SM -RA OVC100 10/04 A3008 RMK AO2 RAE12B30 SLP187 P0000 60001 T01000044 10150 20100 401720022 50001
KUGN - Waukegan, Illinois, USA
Distance from station: NE 42mi, 68km
Updated: Fri, 03-Apr-2020 12:55am CDT
Few Clouds
Few Clouds
 Wind from SSW
Wind: SSW 3 mph , 6 km/h
Temperature: 41°F , 5°C
Dew Point: 34°F , 1°C
Humidity: 76%
Barometer: 30.10 inHg , 1019.3 hPa
Clouds: Few Clouds
Visibility: 10 miles , 16 km
Cloud details: Few Clouds 8500 ft
2020/04/03 05:55 KUGN 030555Z AUTO 21003KT 10SM FEW085 05/01 A3010 RMK AO2 SLP198 T00500011 10061 20028 401001028 52002
 
KBUU - Burlington, Wisconsin, USA
Distance from station: N 50mi, 81km
Updated: Fri, 03-Apr-2020 1:15am CDT
Light drizzle, Clear
Light drizzle, Clear
 Wind from calm
Wind: Calm
Temperature: 45°F , 7°C
Dew Point: 36°F , 2°C
Humidity: 71%
Barometer: 30.10 inHg , 1019.3 hPa
Summary: Light Drizzle
Clouds: Clear
Visibility: 10 miles , 16 km
2020/04/03 06:15 KBUU 030615Z AUTO 00000KT 10SM -DZ CLR 07/02 A3010 RMK AO2 T00650015